Time;durP1;ratioP1;P1;durP2;ratioP2;P2;SDS_P1;SDS_P2;PMS_P1;PMS_P2;Temp;Humidity;BMP_temperature;BMP_pressure;BME280_temperature;BME280_humidity;BME280_pressure;Samples;Min_cycle;Max_cycle;Signal;HPM_P1;HPM_P2
2023/07/03 00:00:19;;;;;;;4.55;1.10;;;;;;;10.29;100.00;100618.91;5035725;28;20040;-82
2023/07/03 00:02:51;;;;;;;4.85;1.23;;;;;;;10.17;100.00;100606.88;5052098;28;20025;-83
2023/07/03 00:05:17;;;;;;;3.35;1.42;;;;;;;10.28;100.00;100639.56;5052374;28;20175;-82
2023/07/03 00:07:42;;;;;;;1.33;0.77;;;;;;;10.23;100.00;100631.16;5035378;28;20509;-82
2023/07/03 00:10:11;;;;;;;1.55;0.60;;;;;;;10.08;100.00;100612.28;5052848;28;20043;-81
2023/07/03 00:12:37;;;;;;;0.82;0.43;;;;;;;10.11;100.00;100620.00;5053256;28;20534;-81
2023/07/03 00:15:03;;;;;;;0.45;0.35;;;;;;;10.04;100.00;100612.81;5055873;28;20067;-81
2023/07/03 00:17:33;;;;;;;0.65;0.40;;;;;;;10.08;100.00;100623.03;5039474;28;20029;-80
2023/07/03 00:19:59;;;;;;;1.75;0.65;;;;;;;10.01;100.00;100602.44;5056585;28;20098;-85
2023/07/03 00:22:25;;;;;;;0.30;0.30;;;;;;;10.07;100.00;100618.66;5055774;28;20093;-84
2023/07/03 00:24:50;;;;;;;0.30;0.30;;;;;;;10.00;100.00;100598.03;5038939;28;20174;-83
2023/07/03 00:27:17;;;;;;;0.52;0.40;;;;;;;10.07;100.00;100602.53;5023020;28;20039;-83
2023/07/03 00:29:42;;;;;;;0.35;0.30;;;;;;;10.10;100.00;100604.03;5039449;28;20111;-82
2023/07/03 00:32:08;;;;;;;0.85;0.40;;;;;;;10.13;100.00;100601.84;5038875;28;20071;-83
2023/07/03 00:34:36;;;;;;;0.30;0.30;;;;;;;10.13;100.00;100591.09;5039211;28;20032;-83
2023/07/03 00:37:02;;;;;;;0.43;0.30;;;;;;;10.13;100.00;100606.38;5055614;28;20035;-83
2023/07/03 00:39:31;;;;;;;0.20;0.20;;;;;;;9.99;100.00;100582.94;5054994;28;20025;-83
2023/07/03 00:41:58;;;;;;;0.30;0.30;;;;;;;10.12;100.00;100596.66;5056119;28;20051;-83
2023/07/03 00:44:24;;;;;;;0.30;0.30;;;;;;;10.15;100.00;100587.41;5055452;28;20386;-84
2023/07/03 00:46:52;;;;;;;0.20;0.20;;;;;;;10.20;100.00;100579.66;5055392;28;20036;-83
2023/07/03 00:49:19;;;;;;;0.30;0.30;;;;;;;10.18;100.00;100579.81;5038878;28;20459;-85
2023/07/03 00:51:46;;;;;;;0.20;0.20;;;;;;;10.12;100.00;100569.78;5022225;28;20380;-84
2023/07/03 00:54:12;;;;;;;0.20;0.20;;;;;;;10.10;100.00;100572.63;5054849;28;20435;-84
2023/07/03 00:56:43;;;;;;;0.80;0.40;;;;;;;10.08;100.00;100566.63;5056303;28;20036;-83
2023/07/03 00:59:09;;;;;;;1.17;0.50;;;;;;;9.93;100.00;100529.94;5054814;28;20029;-83
2023/07/03 01:01:58;;;;;;;0.20;0.20;;;;;;;10.15;100.00;100568.59;5054728;28;20043;-83
2023/07/03 01:04:30;;;;;;;0.35;0.35;;;;;;;10.16;100.00;100562.19;5054906;28;20056;-83
2023/07/03 01:07:06;;;;;;;0.43;0.30;;;;;;;10.14;100.00;100554.31;5055071;28;20032;-82
2023/07/03 01:09:37;;;;;;;0.20;0.20;;;;;;;10.20;100.00;100571.59;5038505;28;20175;-83
2023/07/03 01:12:08;;;;;;;0.30;0.30;;;;;;;10.19;100.00;100561.81;5021972;28;20024;-82
2023/07/03 01:14:34;;;;;;;0.20;0.20;;;;;;;10.18;100.00;100557.47;5038551;28;20128;-84
2023/07/03 01:17:00;;;;;;;0.30;0.30;;;;;;;10.07;100.00;100543.44;5054606;28;20079;-84
2023/07/03 01:19:33;;;;;;;0.30;0.30;;;;;;;10.12;100.00;100546.44;5021397;28;20029;-82
2023/07/03 01:22:04;;;;;;;0.20;0.20;;;;;;;10.11;100.00;100542.09;5055010;28;20036;-84
2023/07/03 01:24:43;;;;;;;0.30;0.30;;;;;;;10.12;100.00;100540.22;5020629;28;20041;-84
2023/07/03 01:27:11;;;;;;;0.30;0.30;;;;;;;10.08;100.00;100529.00;5038139;28;20103;-84
2023/07/03 01:29:39;;;;;;;0.30;0.30;;;;;;;10.09;100.00;100537.91;5021265;28;20210;-83
2023/07/03 01:32:07;;;;;;;0.22;0.20;;;;;;;10.08;100.00;100517.41;5021758;28;20033;-81
2023/07/03 01:34:33;;;;;;;0.30;0.30;;;;;;;10.06;100.00;100514.91;5054715;28;20033;-83
2023/07/03 01:37:01;;;;;;;0.30;0.30;;;;;;;10.06;100.00;100514.09;5038112;28;20094;-82
2023/07/03 01:39:27;;;;;;;0.20;0.20;;;;;;;10.09;100.00;100506.50;5054053;28;20029;-82
2023/07/03 01:41:53;;;;;;;0.32;0.30;;;;;;;10.15;100.00;100504.09;5037803;28;20048;-83
2023/07/03 01:44:19;;;;;;;0.35;0.30;;;;;;;10.22;100.00;100502.38;5037463;28;20051;-83
2023/07/03 01:46:52;;;;;;;0.73;0.40;;;;;;;10.19;100.00;100498.22;5054296;28;20040;-83
2023/07/03 01:49:20;;;;;;;1.25;0.50;;;;;;;10.17;100.00;100494.84;5037363;28;20028;-83
2023/07/03 01:52:00;;;;;;;0.20;0.20;;;;;;;10.19;100.00;100498.22;5070936;28;20094;-82
2023/07/03 01:54:34;;;;;;;0.30;0.30;;;;;;;10.20;100.00;100482.91;5037531;28;20383;-83
2023/07/03 01:57:00;;;;;;;0.30;0.30;;;;;;;10.16;100.00;100473.53;5037447;28;20482;-83
2023/07/03 01:59:29;;;;;;;0.30;0.30;;;;;;;10.23;100.00;100483.38;5037548;28;20107;-81
2023/07/03 02:02:05;;;;;;;0.47;0.30;;;;;;;10.23;100.00;100485.22;5053814;28;20033;-83
2023/07/03 02:04:37;;;;;;;0.20;0.20;;;;;;;10.22;100.00;100475.50;5037749;28;20029;-83
2023/07/03 02:07:08;;;;;;;0.20;0.20;;;;;;;10.21;100.00;100473.81;5037560;28;20033;-81
2023/07/03 02:09:33;;;;;;;0.20;0.20;;;;;;;10.21;100.00;100468.44;5020880;28;20036;-83
2023/07/03 02:11:59;;;;;;;0.20;0.20;;;;;;;10.15;100.00;100459.25;5053933;28;20056;-82
2023/07/03 02:14:25;;;;;;;0.30;0.30;;;;;;;10.21;100.00;100463.06;5020359;28;20060;-81
2023/07/03 02:16:52;;;;;;;0.30;0.30;;;;;;;10.16;100.00;100455.59;5020943;28;20045;-81
2023/07/03 02:19:28;;;;;;;0.30;0.30;;;;;;;10.16;100.00;100458.28;5053461;28;20112;-82
2023/07/03 02:21:58;;;;;;;0.30;0.30;;;;;;;10.11;100.00;100448.06;5038211;28;20024;-81
2023/07/03 02:24:24;;;;;;;0.30;0.30;;;;;;;10.08;100.00;100444.88;5037163;28;20047;-83
2023/07/03 02:26:50;;;;;;;0.20;0.20;;;;;;;10.08;100.00;100437.69;5053239;28;20111;-83
2023/07/03 02:29:16;;;;;;;0.30;0.30;;;;;;;10.04;100.00;100436.34;5004393;28;20033;-82
2023/07/03 02:31:42;;;;;;;0.43;0.30;;;;;;;9.98;100.00;100410.22;5020395;28;20033;-81
2023/07/03 02:34:10;;;;;;;0.30;0.30;;;;;;;10.09;100.00;100422.38;5036960;28;20047;-84
2023/07/03 02:36:37;;;;;;;0.30;0.30;;;;;;;10.08;100.00;100410.81;5036277;28;20532;-82
2023/07/03 02:39:04;;;;;;;0.30;0.30;;;;;;;10.10;100.00;100416.00;5036773;28;20033;-84
2023/07/03 02:41:31;;;;;;;0.30;0.30;;;;;;;10.09;100.00;100401.72;5037023;28;20414;-83
2023/07/03 02:43:57;;;;;;;1.08;0.50;;;;;;;10.02;100.00;100379.28;5036757;28;20040;-82
2023/07/03 02:46:22;;;;;;;1.08;0.50;;;;;;;10.11;100.00;100380.88;5036564;28;20514;-83
2023/07/03 02:48:48;;;;;;;0.20;0.20;;;;;;;10.05;100.00;100361.97;5036779;28;20025;-82
2023/07/03 02:51:14;;;;;;;0.30;0.30;;;;;;;10.14;100.00;100371.63;5054247;28;20033;-82
2023/07/03 02:53:41;;;;;;;0.65;0.40;;;;;;;10.16;100.00;100364.22;5052784;28;20045;-82
2023/07/03 02:56:07;;;;;;;0.20;0.20;;;;;;;10.22;100.00;100362.66;5054027;28;20044;-82
2023/07/03 02:58:32;;;;;;;0.30;0.30;;;;;;;10.22;100.00;100366.19;5054047;28;20028;-82
2023/07/03 03:00:58;;;;;;;0.45;0.30;;;;;;;10.20;100.00;100349.41;5052972;28;20036;-83
2023/07/03 03:03:25;;;;;;;0.20;0.20;;;;;;;10.19;100.00;100337.00;5052635;28;20025;-81
2023/07/03 03:05:53;;;;;;;0.30;0.30;;;;;;;10.21;100.00;100328.72;5052970;28;20029;-84
2023/07/03 03:08:21;;;;;;;0.30;0.30;;;;;;;10.31;100.00;100340.09;5036491;28;20036;-83
2023/07/03 03:10:46;;;;;;;0.20;0.20;;;;;;;10.32;100.00;100320.28;5052798;28;20082;-82
2023/07/03 03:13:12;;;;;;;0.20;0.20;;;;;;;10.34;100.00;100313.66;5053838;28;20029;-83
2023/07/03 03:15:37;;;;;;;0.43;0.40;;;;;;;10.43;100.00;100309.06;5053985;28;20036;-83
2023/07/03 03:18:05;;;;;;;0.30;0.30;;;;;;;10.49;100.00;100300.22;5053577;28;20020;-84
2023/07/03 03:20:30;;;;;;;1.15;0.50;;;;;;;10.43;100.00;100279.50;5053738;28;20460;-83
2023/07/03 03:22:56;;;;;;;0.47;0.40;;;;;;;10.47;100.00;100286.13;5053319;28;20029;-83
2023/07/03 03:25:24;;;;;;;0.30;0.30;;;;;;;10.49;100.00;100281.41;5053733;28;20070;-82
2023/07/03 03:27:51;;;;;;;0.22;0.22;;;;;;;10.55;100.00;100294.09;5052554;28;20025;-82
2023/07/03 03:30:17;;;;;;;0.20;0.20;;;;;;;10.58;100.00;100287.50;5052056;28;20033;-83
2023/07/03 03:32:43;;;;;;;0.30;0.30;;;;;;;10.58;100.00;100263.31;5052298;28;20614;-83
2023/07/03 03:35:09;;;;;;;0.90;0.43;;;;;;;10.60;100.00;100271.22;5019569;28;20071;-83
2023/07/03 03:37:36;;;;;;;0.20;0.20;;;;;;;10.67;100.00;100261.38;5052172;28;20060;-83
2023/07/03 03:40:03;;;;;;;0.20;0.20;;;;;;;10.69;100.00;100251.25;5019584;28;20029;-81
2023/07/03 03:42:29;;;;;;;0.63;0.38;;;;;;;10.62;100.00;100223.47;5052406;28;20128;-83
2023/07/03 03:44:55;;;;;;;0.65;0.40;;;;;;;10.67;100.00;100223.75;5052229;28;20481;-83
2023/07/03 03:47:21;;;;;;;0.30;0.30;;;;;;;10.79;100.00;100225.72;5051409;28;20036;-82
2023/07/03 03:49:47;;;;;;;1.13;0.50;;;;;;;10.86;100.00;100235.72;5052200;28;20033;-84
2023/07/03 03:52:12;;;;;;;0.20;0.20;;;;;;;10.89;100.00;100219.22;5035583;28;20033;-82
2023/07/03 03:54:38;;;;;;;0.28;0.28;;;;;;;10.91;100.00;100207.25;5035409;28;20506;-85
2023/07/03 03:57:04;;;;;;;0.30;0.30;;;;;;;11.04;100.00;100206.53;5018670;28;20029;-83
2023/07/03 03:59:31;;;;;;;0.55;0.47;;;;;;;11.10;100.00;100203.06;5052086;28;20025;-81
2023/07/03 04:01:56;;;;;;;0.32;0.32;;;;;;;11.23;100.00;100207.75;5051978;28;20039;-85
2023/07/03 04:04:24;;;;;;;0.40;0.40;;;;;;;11.31;100.00;100196.00;5035596;28;20029;-84
2023/07/03 04:06:53;;;;;;;0.20;0.20;;;;;;;11.31;100.00;100183.38;5019015;28;20072;-84
2023/07/03 04:09:21;;;;;;;0.40;0.40;;;;;;;11.35;100.00;100183.81;5019270;28;20047;-83
2023/07/03 04:11:47;;;;;;;0.30;0.30;;;;;;;11.39;100.00;100198.56;5052088;28;20029;-83
2023/07/03 04:14:15;;;;;;;0.60;0.47;;;;;;;11.43;100.00;100200.69;5035331;28;20025;-83
2023/07/03 04:16:43;;;;;;;0.30;0.30;;;;;;;11.46;100.00;100194.06;5019513;28;20464;-83
2023/07/03 04:19:09;;;;;;;0.43;0.40;;;;;;;11.40;100.00;100200.22;5035318;28;20043;-84
2023/07/03 04:21:35;;;;;;;1.20;0.45;;;;;;;11.38;100.00;100203.13;5018944;28;20472;-84
2023/07/03 04:24:01;;;;;;;0.47;0.40;;;;;;;11.33;100.00;100199.34;5052989;28;20053;-83
2023/07/03 04:26:28;;;;;;;1.63;0.70;;;;;;;11.29;100.00;100196.19;5035343;28;20033;-84
2023/07/03 04:28:59;;;;;;;0.30;0.30;;;;;;;11.31;100.00;100191.44;5018764;28;20040;-84
2023/07/03 04:31:25;;;;;;;0.30;0.30;;;;;;;11.35;100.00;100194.56;5035921;28;20033;-84
2023/07/03 04:33:51;;;;;;;0.47;0.40;;;;;;;11.39;100.00;100193.19;5035272;28;20087;-83
2023/07/03 04:36:20;;;;;;;0.30;0.30;;;;;;;11.32;100.00;100193.09;5035044;28;20098;-82
2023/07/03 04:38:47;;;;;;;1.13;0.47;;;;;;;11.31;100.00;100212.16;5051297;28;20025;-83
2023/07/03 04:41:14;;;;;;;0.35;0.30;;;;;;;11.34;100.00;100203.69;5066830;28;20064;-83
2023/07/03 04:43:44;;;;;;;0.47;0.35;;;;;;;11.34;100.00;100220.66;5039358;28;20179;-83
2023/07/03 04:46:11;;;;;;;0.30;0.30;;;;;;;11.22;100.00;100200.72;5019206;28;20078;-83
2023/07/03 04:48:39;;;;;;;0.80;0.40;;;;;;;11.34;100.00;100217.97;5003042;28;20132;-85
2023/07/03 04:51:04;;;;;;;1.05;0.40;;;;;;;11.35;100.00;100218.81;5018219;28;20124;-83
2023/07/03 04:53:39;;;;;;;2.30;0.82;;;;;;;11.33;100.00;100227.09;5034657;28;20115;-84
2023/07/03 04:56:05;;;;;;;0.73;0.40;;;;;;;11.21;100.00;100216.00;5034666;28;20115;-83
2023/07/03 04:58:33;;;;;;;0.90;0.50;;;;;;;11.20;100.00;100219.72;5035069;28;20120;-83
2023/07/03 05:01:01;;;;;;;1.13;0.45;;;;;;;11.37;100.00;100244.50;5056262;28;20033;-83
2023/07/03 05:03:26;;;;;;;0.90;0.47;;;;;;;11.34;100.00;100238.69;5055582;28;20032;-83
2023/07/03 05:05:52;;;;;;;0.50;0.40;;;;;;;11.38;100.00;100254.25;5054739;28;20372;-84
2023/07/03 05:08:17;;;;;;;1.23;0.55;;;;;;;11.38;100.00;100256.94;5054468;28;20044;-84
2023/07/03 05:10:45;;;;;;;2.45;0.80;;;;;;;11.43;100.00;100250.97;5038228;28;20029;-83
2023/07/03 05:13:11;;;;;;;2.22;0.73;;;;;;;11.49;100.00;100265.53;5038062;28;20483;-84
2023/07/03 05:15:36;;;;;;;0.75;0.40;;;;;;;11.55;100.00;100270.13;5038263;28;20219;-83
2023/07/03 05:18:02;;;;;;;0.90;0.45;;;;;;;11.53;100.00;100266.81;5021854;28;20029;-85
2023/07/03 05:20:29;;;;;;;0.52;0.30;;;;;;;11.54;100.00;100268.47;5021640;28;20383;-82
2023/07/03 05:22:55;;;;;;;0.32;0.32;;;;;;;11.56;100.00;100264.53;5037965;28;20033;-84
2023/07/03 05:25:21;;;;;;;0.32;0.30;;;;;;;11.65;100.00;100267.94;5054493;28;20437;-82
2023/07/03 05:27:48;;;;;;;0.68;0.40;;;;;;;11.71;100.00;100264.47;5054490;28;20060;-81
2023/07/03 05:30:14;;;;;;;1.30;0.55;;;;;;;11.74;100.00;100269.47;5054073;28;20048;-82
2023/07/03 05:32:39;;;;;;;0.93;0.40;;;;;;;11.76;100.00;100269.28;5021472;28;20475;-82
2023/07/03 05:35:05;;;;;;;0.73;0.40;;;;;;;11.83;100.00;100270.16;5021528;28;20039;-82
2023/07/03 05:37:32;;;;;;;1.13;0.57;;;;;;;11.80;100.00;100263.31;5037698;28;20498;-82
2023/07/03 05:40:00;;;;;;;0.45;0.40;;;;;;;12.04;100.00;100282.75;5020501;28;20040;-83
2023/07/03 05:42:26;;;;;;;0.57;0.40;;;;;;;12.32;100.00;100275.47;5021638;28;20495;-83
2023/07/03 05:44:52;;;;;;;0.32;0.30;;;;;;;12.30;100.00;100287.47;5054260;28;20074;-83
2023/07/03 05:47:17;;;;;;;0.65;0.40;;;;;;;12.21;100.00;100261.72;5021232;28;20398;-81
2023/07/03 05:49:43;;;;;;;0.45;0.43;;;;;;;12.22;100.00;100266.06;5021066;28;20029;-81
2023/07/03 05:52:10;;;;;;;0.40;0.40;;;;;;;12.51;100.00;100271.19;5004303;28;20109;-83
2023/07/03 05:54:42;;;;;;;0.38;0.38;;;;;;;13.20;100.00;100286.41;5053902;28;20025;-84
2023/07/03 05:57:11;;;;;;;0.40;0.40;;;;;;;14.51;100.00;100282.19;5052895;28;20049;-84
2023/07/03 05:59:40;;;;;;;0.30;0.30;;;;;;;14.29;100.00;100276.22;5053854;28;20040;-84
2023/07/03 06:02:13;;;;;;;0.63;0.45;;;;;;;14.10;100.00;100280.59;5020770;28;20139;-82
2023/07/03 06:04:39;;;;;;;0.50;0.50;;;;;;;15.04;100.00;100295.53;5021203;28;20037;-84
2023/07/03 06:07:08;;;;;;;0.57;0.40;;;;;;;15.28;100.00;100293.09;5020503;28;20040;-82
2023/07/03 06:09:36;;;;;;;0.30;0.30;;;;;;;14.79;100.00;100286.47;5036634;28;20448;-84
2023/07/03 06:12:02;;;;;;;0.77;0.47;;;;;;;14.39;100.00;100286.59;5036044;28;20052;-82
2023/07/03 06:14:31;;;;;;;0.30;0.30;;;;;;;14.36;100.00;100289.72;5020488;28;20466;-83
2023/07/03 06:16:58;;;;;;;0.32;0.32;;;;;;;14.56;100.00;100279.72;5037522;28;20037;-83
2023/07/03 06:19:25;;;;;;;0.38;0.30;;;;;;;14.64;100.00;100287.59;5053801;28;20159;-83
2023/07/03 06:21:51;;;;;;;1.95;0.77;;;;;;;15.08;100.00;100291.34;5036388;28;20572;-83
2023/07/03 06:24:17;;;;;;;0.40;0.40;;;;;;;14.79;100.00;100294.59;5054091;28;20064;-82
2023/07/03 06:26:44;;;;;;;0.70;0.50;;;;;;;15.08;100.00;100295.91;5052827;28;20033;-82
2023/07/03 06:29:14;;;;;;;1.33;0.60;;;;;;;15.85;100.00;100303.94;5020577;28;20131;-83
2023/07/03 06:31:42;;;;;;;2.53;0.90;;;;;;;16.31;100.00;100289.13;5035963;28;20386;-81
2023/07/03 06:34:11;;;;;;;0.75;0.40;;;;;;;16.05;100.00;100313.56;5036502;28;20044;-81
2023/07/03 06:36:37;;;;;;;0.93;0.50;;;;;;;15.38;100.00;100307.81;5036039;28;20044;-80
2023/07/03 06:39:07;;;;;;;0.65;0.40;;;;;;;14.92;100.00;100318.88;5036456;28;20032;-81
2023/07/03 06:41:34;;;;;;;2.63;0.80;;;;;;;14.37;100.00;100324.69;5036498;28;20022;-83
2023/07/03 06:44:00;;;;;;;0.68;0.40;;;;;;;13.81;100.00;100325.13;5052584;28;20518;-83
2023/07/03 06:46:33;;;;;;;1.45;0.57;;;;;;;13.30;100.00;100314.91;5036592;28;20471;-79
2023/07/03 06:48:58;;;;;;;0.85;0.40;;;;;;;13.09;100.00;100316.66;5019764;28;20071;-79
2023/07/03 06:51:24;;;;;;;0.77;0.47;;;;;;;12.94;100.00;100324.94;5053470;28;20037;-78
2023/07/03 06:53:55;;;;;;;1.52;0.60;;;;;;;13.04;100.00;100316.44;5036076;28;20189;-83
2023/07/03 06:56:22;;;;;;;0.30;0.30;;;;;;;13.76;100.00;100325.78;5036062;28;20379;-82
2023/07/03 06:58:48;;;;;;;0.50;0.50;;;;;;;14.32;100.00;100339.88;5052787;28;20148;-81
2023/07/03 07:01:19;;;;;;;0.95;0.50;;;;;;;15.78;100.00;100340.09;5035894;28;20067;-79
2023/07/03 07:03:44;;;;;;;1.30;0.60;;;;;;;15.51;100.00;100338.59;5019420;28;20134;-83
2023/07/03 07:06:16;;;;;;;0.75;0.57;;;;;;;16.34;100.00;100334.81;5052604;28;20048;-82
2023/07/03 07:08:42;;;;;;;0.40;0.40;;;;;;;17.80;100.00;100308.47;5019797;28;20037;-82
2023/07/03 07:11:14;;;;;;;0.40;0.40;;;;;;;17.72;100.00;100333.25;5052167;28;20083;-83
2023/07/03 07:13:41;;;;;;;0.38;0.32;;;;;;;16.59;100.00;100323.88;5035915;28;20040;-81
2023/07/03 07:16:17;;;;;;;0.85;0.55;;;;;;;15.83;100.00;100342.97;5019553;28;20143;-82
2023/07/03 07:18:46;;;;;;;0.70;0.40;;;;;;;15.30;100.00;100335.16;5019151;28;20025;-82
2023/07/03 07:21:12;;;;;;;1.35;0.60;;;;;;;14.72;100.00;100335.22;5035843;28;20048;-82
2023/07/03 07:23:38;;;;;;;0.55;0.45;;;;;;;14.41;100.00;100331.31;5052095;28;20029;-81
2023/07/03 07:26:04;;;;;;;0.35;0.30;;;;;;;14.21;100.00;100342.19;5036089;28;20495;-80
2023/07/03 07:28:30;;;;;;;1.38;0.57;;;;;;;14.21;100.00;100335.91;5051758;28;20075;-81
2023/07/03 07:30:55;;;;;;;1.45;0.60;;;;;;;14.91;100.00;100337.00;5052015;28;20027;-82
2023/07/03 07:33:22;;;;;;;0.82;0.45;;;;;;;14.92;100.00;100341.41;5051815;28;20023;-81
2023/07/03 07:35:51;;;;;;;0.30;0.30;;;;;;;14.63;100.00;100340.06;5052107;28;20479;-81
2023/07/03 07:38:35;;;;;;;1.35;0.55;;;;;;;14.48;100.00;100332.13;5036299;28;20103;-81
2023/07/03 07:41:03;;;;;;;0.47;0.40;;;;;;;14.98;100.00;100345.13;5050745;28;20036;-81
2023/07/03 07:43:29;;;;;;;1.17;0.60;;;;;;;16.12;100.00;100340.66;5052330;28;20021;-80
2023/07/03 07:45:55;;;;;;;0.75;0.43;;;;;;;16.44;100.00;100343.25;5053271;28;20398;-81
2023/07/03 07:48:21;;;;;;;0.85;0.45;;;;;;;15.82;100.00;100340.47;5035675;28;20364;-80
2023/07/03 07:50:46;;;;;;;0.25;0.25;;;;;;;15.27;100.00;100346.44;5053437;28;20028;-82
2023/07/03 07:53:12;;;;;;;0.82;0.40;;;;;;;15.14;100.00;100332.97;5055572;28;20092;-82
2023/07/03 07:55:38;;;;;;;0.30;0.30;;;;;;;14.81;100.00;100343.94;5044950;28;20116;-81
2023/07/03 07:58:04;;;;;;;0.25;0.25;;;;;;;14.75;100.00;100358.31;5054370;28;20052;-82
2023/07/03 08:00:31;;;;;;;0.47;0.47;;;;;;;15.06;100.00;100368.41;5052355;28;20545;-82
2023/07/03 08:02:56;;;;;;;0.40;0.40;;;;;;;15.72;100.00;100343.69;5052660;28;20029;-81
2023/07/03 08:05:22;;;;;;;1.60;0.77;;;;;;;17.51;100.00;100364.53;5035325;28;20086;-83
2023/07/03 08:07:48;;;;;;;0.85;0.80;;;;;;;18.97;100.00;100358.50;5051869;28;20044;-82
2023/07/03 08:10:14;;;;;;;0.55;0.55;;;;;;;19.77;100.00;100346.69;5035520;28;20040;-82
2023/07/03 08:12:41;;;;;;;0.30;0.30;;;;;;;19.04;100.00;100345.56;5035475;28;20033;-82
2023/07/03 08:15:07;;;;;;;0.40;0.40;;;;;;;18.38;100.00;100343.03;5035009;28;20061;-82
2023/07/03 08:17:34;;;;;;;0.35;0.30;;;;;;;17.55;100.00;100349.44;5051728;28;20025;-82
2023/07/03 08:19:59;;;;;;;0.57;0.50;;;;;;;16.82;100.00;100351.22;5051670;28;20021;-81
2023/07/03 08:22:29;;;;;;;0.30;0.30;;;;;;;16.08;100.00;100382.81;5019066;28;20043;-81
2023/07/03 08:24:57;;;;;;;0.30;0.30;;;;;;;15.14;100.00;100384.41;5020490;28;20091;-81
2023/07/03 08:27:28;;;;;;;1.02;0.50;;;;;;;14.20;100.00;100399.97;5035798;28;20029;-78
2023/07/03 08:29:54;;;;;;;0.30;0.30;;;;;;;13.55;100.00;100364.59;5035545;28;20136;-79
2023/07/03 08:32:20;;;;;;;0.30;0.30;;;;;;;13.51;100.00;100390.34;5034394;28;20025;-81
2023/07/03 08:34:45;;;;;;;3.60;1.15;;;;;;;13.58;100.00;100396.59;5020992;28;20035;-79
2023/07/03 08:37:11;;;;;;;0.85;0.63;;;;;;;15.17;100.00;100384.81;5038966;28;20025;-81
2023/07/03 08:39:38;;;;;;;1.10;0.80;;;;;;;17.86;100.00;100391.88;5038640;28;20456;-81
2023/07/03 08:42:18;;;;;;;0.60;0.60;;;;;;;20.13;95.21;100378.13;5038711;28;20036;-80
2023/07/03 08:44:43;;;;;;;0.60;0.60;;;;;;;21.28;91.64;100385.75;5022743;28;20033;-81
2023/07/03 08:47:17;;;;;;;0.47;0.40;;;;;;;21.54;89.28;100388.78;5055231;28;20074;-80
2023/07/03 08:49:44;;;;;;;0.68;0.63;;;;;;;21.80;89.03;100393.41;5020813;28;20509;-80
2023/07/03 08:52:12;;;;;;;0.70;0.70;;;;;;;22.52;87.50;100363.88;5037085;28;20060;-82
2023/07/03 08:54:40;;;;;;;1.00;0.70;;;;;;;23.54;86.24;100386.28;5055998;28;20059;-81
2023/07/03 08:57:06;;;;;;;1.08;0.70;;;;;;;24.28;82.07;100384.97;5057346;28;20111;-81
2023/07/03 08:59:32;;;;;;;0.70;0.70;;;;;;;24.43;76.56;100380.59;5021843;28;20029;-82
2023/07/03 09:02:19;;;;;;;0.60;0.60;;;;;;;23.92;80.09;100370.44;5055253;28;20049;-81
2023/07/03 09:05:13;;;;;;;0.32;0.32;;;;;;;20.64;95.62;100376.19;5022079;28;20040;-81
2023/07/03 09:07:49;;;;;;;0.30;0.30;;;;;;;18.57;100.00;100387.31;5038395;28;20082;-82
2023/07/03 09:10:22;;;;;;;0.60;0.30;;;;;;;16.54;100.00;100413.28;5038554;28;20029;-80
2023/07/03 09:12:57;;;;;;;0.20;0.20;;;;;;;14.29;100.00;100395.22;5022239;28;20471;-78
2023/07/03 09:15:34;;;;;;;0.30;0.30;;;;;;;13.16;100.00;100401.22;5037852;28;20067;-80
2023/07/03 09:18:02;;;;;;;0.88;0.80;;;;;;;14.71;100.00;100410.19;5038287;28;20517;-81
2023/07/03 09:20:32;;;;;;;0.40;0.40;;;;;;;18.18;100.00;100402.47;5054868;28;20483;-80
2023/07/03 09:23:04;;;;;;;0.40;0.40;;;;;;;17.52;100.00;100410.53;5054741;28;20033;-80
2023/07/03 09:25:41;;;;;;;0.55;0.50;;;;;;;17.05;100.00;100409.47;5038220;28;20116;-80
2023/07/03 09:28:09;;;;;;;0.47;0.45;;;;;;;16.90;100.00;100407.09;5021955;28;20086;-80
2023/07/03 09:30:36;;;;;;;0.50;0.50;;;;;;;17.05;100.00;100415.72;5021471;28;20025;-80
2023/07/03 09:33:01;;;;;;;0.40;0.40;;;;;;;17.76;100.00;100402.47;5037916;28;20028;-81
2023/07/03 09:35:36;;;;;;;0.57;0.57;;;;;;;18.28;100.00;100415.47;5054519;28;20029;-83
2023/07/03 09:38:05;;;;;;;0.70;0.70;;;;;;;20.62;94.13;100416.59;5054512;28;20025;-80
2023/07/03 09:40:39;;;;;;;0.70;0.60;;;;;;;21.99;87.56;100420.41;5038146;28;20029;-81
2023/07/03 09:43:31;;;;;;;1.02;0.75;;;;;;;23.04;83.59;100417.94;5037817;28;20490;-81
2023/07/03 09:46:07;;;;;;;0.70;0.70;;;;;;;23.95;80.04;100418.47;5050943;28;20392;-80
2023/07/03 09:48:35;;;;;;;0.73;0.68;;;;;;;24.49;77.72;100418.78;5020857;28;20029;-81
2023/07/03 09:51:05;;;;;;;0.77;0.73;;;;;;;25.37;73.34;100433.97;5053940;28;20036;-79
2023/07/03 09:53:38;;;;;;;0.65;0.55;;;;;;;25.01;74.52;100406.56;5037426;28;20029;-79
2023/07/03 09:56:04;;;;;;;0.52;0.40;;;;;;;22.35;80.69;100411.44;5037352;28;20033;-80
2023/07/03 09:58:30;;;;;;;0.50;0.50;;;;;;;20.83;86.41;100417.72;5037422;28;20072;-79
2023/07/03 10:00:58;;;;;;;1.20;0.60;;;;;;;19.85;91.75;100432.78;5053702;28;20428;-79
2023/07/03 10:03:28;;;;;;;1.92;0.80;;;;;;;19.82;92.30;100436.81;5053796;28;20514;-81
2023/07/03 10:05:55;;;;;;;2.05;0.90;;;;;;;22.31;80.37;100428.69;5037285;28;20099;-79
2023/07/03 10:08:29;;;;;;;1.33;0.90;;;;;;;23.88;72.75;100432.50;5020990;28;20134;-80
2023/07/03 10:10:58;;;;;;;4.65;1.15;;;;;;;24.89;66.94;100436.31;5004998;28;20499;-79
2023/07/03 10:13:28;;;;;;;1.10;0.98;;;;;;;24.55;69.58;100400.38;5004660;28;20174;-81
2023/07/03 10:15:57;;;;;;;1.23;0.90;;;;;;;25.52;65.00;100446.00;5053751;28;20509;-80
2023/07/03 10:18:30;;;;;;;5.72;1.50;;;;;;;25.91;62.84;100440.59;5020638;28;20510;-79
2023/07/03 10:20:56;;;;;;;5.25;1.75;;;;;;;26.04;60.64;100433.59;5037285;28;20044;-81
2023/07/03 10:23:25;;;;;;;1.95;1.10;;;;;;;26.40;59.29;100445.13;5053818;28;20459;-82
2023/07/03 10:25:55;;;;;;;3.42;1.02;;;;;;;25.08;62.81;100443.94;5004671;28;20124;-82
2023/07/03 10:28:26;;;;;;;5.38;1.67;;;;;;;26.38;57.59;100439.09;5053268;28;20505;-82
2023/07/03 10:30:56;;;;;;;4.35;1.60;;;;;;;25.75;56.90;100423.31;5053714;28;20029;-82
2023/07/03 10:33:35;;;;;;;4.00;1.17;;;;;;;25.20;58.89;100444.50;5020735;28;20084;-85
2023/07/03 10:36:10;;;;;;;4.13;1.45;;;;;;;21.95;65.66;100384.53;5037163;28;20040;-82
2023/07/03 10:38:54;;;;;;;5.82;1.88;;;;;;;23.14;68.79;100415.25;5036753;28;20036;-84
2023/07/03 10:41:24;;;;;;;3.38;1.50;;;;;;;25.28;62.33;100452.16;5005359;28;20399;-83
2023/07/03 10:44:03;;;;;;;3.78;1.40;;;;;;;25.59;56.42;100452.84;5020388;28;20471;-84
2023/07/03 10:46:50;;;;;;;4.13;1.10;;;;;;;23.27;61.56;100438.59;5036719;28;20044;-84
2023/07/03 10:49:29;;;;;;;4.78;1.95;;;;;;;24.34;57.84;100454.50;5036091;28;20024;-82
2023/07/03 10:52:16;;;;;;;4.80;1.48;;;;;;;25.81;57.17;100446.13;5036683;28;20064;-83
2023/07/03 10:54:53;;;;;;;5.85;1.63;;;;;;;24.42;54.95;100464.94;5053294;28;20028;-82
2023/07/03 10:57:26;;;;;;;9.80;1.90;;;;;;;22.34;59.50;100464.59;5053598;28;20373;-82
2023/07/03 10:59:54;;;;;;;3.92;1.65;;;;;;;20.75;65.29;100453.66;5054078;28;20021;-82
2023/07/03 11:03:03;;;;;;;6.13;1.83;;;;;;;19.75;67.73;100461.50;5003768;28;20319;-81
2023/07/03 11:05:36;;;;;;;7.18;2.05;;;;;;;18.99;71.46;100454.44;5045536;28;20049;-81
2023/07/03 11:08:14;;;;;;;;;;;;;;;20.32;64.31;100470.69;5036907;28;20127;-81
2023/07/03 11:10:55;;;;;;;5.03;1.92;;;;;;;23.12;55.38;100469.53;5052785;28;19912;-81
2023/07/03 11:13:49;;;;;;;4.72;1.38;;;;;;;24.73;45.84;100463.00;5019437;28;20391;-81
2023/07/03 11:16:16;;;;;;;5.60;2.40;;;;;;;25.51;40.74;100469.13;5037221;28;20043;-82
2023/07/03 11:19:00;;;;;;;7.35;2.75;;;;;;;26.22;38.99;100459.63;5034827;28;20102;-80
2023/07/03 11:21:53;;;;;;;4.88;1.95;;;;;;;26.21;36.72;100456.06;5052701;28;20039;-81
2023/07/03 11:24:57;;;;;;;5.38;1.23;;;;;;;25.11;37.76;100465.41;5020091;28;20055;-82
2023/07/03 11:27:47;;;;;;;2.70;1.23;;;;;;;22.99;40.99;100428.88;5031910;28;20124;-82